sensor_id;sensor_type;location;lat;lon;timestamp;pressure;altitude;pressure_sealevel;temperature;humidity
23281;BME280;11809;56.390;-3.266;2022-10-31T00:01:16;100263.53;;;16.39;65.16
23281;BME280;11809;56.390;-3.266;2022-10-31T00:03:44;100263.66;;;16.38;65.10
23281;BME280;11809;56.390;-3.266;2022-10-31T00:06:12;100268.97;;;16.38;65.08
23281;BME280;11809;56.390;-3.266;2022-10-31T00:08:38;100270.75;;;16.37;65.21
23281;BME280;11809;56.390;-3.266;2022-10-31T00:11:09;100263.78;;;16.36;65.18
23281;BME280;11809;56.390;-3.266;2022-10-31T00:13:37;100266.50;;;16.35;65.31
23281;BME280;11809;56.390;-3.266;2022-10-31T00:16:04;100271.94;;;16.33;65.21
23281;BME280;11809;56.390;-3.266;2022-10-31T00:18:31;100279.03;;;16.33;65.18
23281;BME280;11809;56.390;-3.266;2022-10-31T00:21:02;100282.75;;;16.30;65.29
23281;BME280;11809;56.390;-3.266;2022-10-31T00:23:29;100281.06;;;16.29;65.45
23281;BME280;11809;56.390;-3.266;2022-10-31T00:26:00;100288.16;;;16.29;65.33
23281;BME280;11809;56.390;-3.266;2022-10-31T00:28:29;100291.78;;;16.28;65.38
23281;BME280;11809;56.390;-3.266;2022-10-31T00:31:05;100288.28;;;16.27;65.33
23281;BME280;11809;56.390;-3.266;2022-10-31T00:33:34;100299.00;;;16.26;65.35
23281;BME280;11809;56.390;-3.266;2022-10-31T00:36:01;100300.03;;;16.23;65.43
23281;BME280;11809;56.390;-3.266;2022-10-31T00:38:28;100293.91;;;16.23;65.52
23281;BME280;11809;56.390;-3.266;2022-10-31T00:40:55;100301.00;;;16.22;65.56
23281;BME280;11809;56.390;-3.266;2022-10-31T00:43:22;100292.19;;;16.22;65.59
23281;BME280;11809;56.390;-3.266;2022-10-31T00:45:50;100295.03;;;16.19;65.57
23281;BME280;11809;56.390;-3.266;2022-10-31T00:48:17;100304.81;;;16.18;65.69
23281;BME280;11809;56.390;-3.266;2022-10-31T00:50:44;100319.75;;;16.19;65.53
23281;BME280;11809;56.390;-3.266;2022-10-31T00:53:11;100313.81;;;16.16;65.55
23281;BME280;11809;56.390;-3.266;2022-10-31T00:55:38;100313.94;;;16.14;65.67
23281;BME280;11809;56.390;-3.266;2022-10-31T00:58:05;100307.91;;;16.12;65.69
23281;BME280;11809;56.390;-3.266;2022-10-31T01:00:32;100315.84;;;16.12;65.74
23281;BME280;11809;56.390;-3.266;2022-10-31T01:02:59;100321.97;;;16.13;65.83
23281;BME280;11809;56.390;-3.266;2022-10-31T01:05:27;100322.22;;;16.10;65.82
23281;BME280;11809;56.390;-3.266;2022-10-31T01:07:53;100325.69;;;16.10;65.88
23281;BME280;11809;56.390;-3.266;2022-10-31T01:10:20;100316.13;;;16.08;65.80
23281;BME280;11809;56.390;-3.266;2022-10-31T01:12:48;100327.78;;;16.05;65.91
23281;BME280;11809;56.390;-3.266;2022-10-31T01:15:20;100323.34;;;16.06;65.94
23281;BME280;11809;56.390;-3.266;2022-10-31T01:17:48;100320.81;;;16.04;65.86
23281;BME280;11809;56.390;-3.266;2022-10-31T01:20:16;100317.19;;;16.05;65.90
23281;BME280;11809;56.390;-3.266;2022-10-31T01:22:44;100318.16;;;16.04;66.00
23281;BME280;11809;56.390;-3.266;2022-10-31T01:25:11;100329.50;;;16.06;65.90
23281;BME280;11809;56.390;-3.266;2022-10-31T01:27:38;100314.66;;;16.04;66.09
23281;BME280;11809;56.390;-3.266;2022-10-31T01:30:05;100310.41;;;16.01;66.13
23281;BME280;11809;56.390;-3.266;2022-10-31T01:32:32;100324.53;;;16.02;66.13
23281;BME280;11809;56.390;-3.266;2022-10-31T01:34:59;100336.06;;;16.01;66.19
23281;BME280;11809;56.390;-3.266;2022-10-31T01:37:26;100323.75;;;16.00;66.24
23281;BME280;11809;56.390;-3.266;2022-10-31T01:39:53;100322.94;;;15.99;66.28
23281;BME280;11809;56.390;-3.266;2022-10-31T01:42:21;100322.94;;;15.99;66.08
23281;BME280;11809;56.390;-3.266;2022-10-31T01:44:55;100317.19;;;15.93;66.09
23281;BME280;11809;56.390;-3.266;2022-10-31T01:47:33;100316.03;;;15.97;66.17
23281;BME280;11809;56.390;-3.266;2022-10-31T01:50:04;100321.34;;;15.97;66.34
23281;BME280;11809;56.390;-3.266;2022-10-31T01:52:37;100325.78;;;15.96;66.23
23281;BME280;11809;56.390;-3.266;2022-10-31T01:57:34;100333.63;;;15.98;66.24
23281;BME280;11809;56.390;-3.266;2022-10-31T02:00:06;100321.44;;;15.95;66.35
23281;BME280;11809;56.390;-3.266;2022-10-31T02:02:34;100328.53;;;15.95;66.25
23281;BME280;11809;56.390;-3.266;2022-10-31T02:05:05;100336.47;;;15.95;66.16
23281;BME280;11809;56.390;-3.266;2022-10-31T02:07:43;100348.13;;;15.92;66.35
23281;BME280;11809;56.390;-3.266;2022-10-31T02:10:12;100336.59;;;15.93;66.38
23281;BME280;11809;56.390;-3.266;2022-10-31T02:12:40;100328.63;;;15.93;66.33
23281;BME280;11809;56.390;-3.266;2022-10-31T02:15:08;100326.06;;;15.92;66.29
23281;BME280;11809;56.390;-3.266;2022-10-31T02:17:35;100347.28;;;15.92;66.40
23281;BME280;11809;56.390;-3.266;2022-10-31T02:20:20;100332.22;;;15.92;66.41
23281;BME280;11809;56.390;-3.266;2022-10-31T02:33:43;100330.75;;;15.88;66.51
23281;BME280;11809;56.390;-3.266;2022-10-31T02:36:27;100335.19;;;15.88;66.46
23281;BME280;11809;56.390;-3.266;2022-10-31T02:44:38;100333.69;;;15.84;66.47
23281;BME280;11809;56.390;-3.266;2022-10-31T02:47:12;100326.72;;;15.83;66.33
23281;BME280;11809;56.390;-3.266;2022-10-31T02:52:32;100333.81;;;15.82;66.56
23281;BME280;11809;56.390;-3.266;2022-10-31T02:57:54;100343.66;;;15.80;66.64
23281;BME280;11809;56.390;-3.266;2022-10-31T03:00:24;100341.94;;;15.79;66.51
23281;BME280;11809;56.390;-3.266;2022-10-31T03:06:05;100341.09;;;15.78;66.63
23281;BME280;11809;56.390;-3.266;2022-10-31T03:11:09;100337.72;;;15.76;66.62
23281;BME280;11809;56.390;-3.266;2022-10-31T03:16:41;100330.28;;;15.69;66.66
23281;BME280;11809;56.390;-3.266;2022-10-31T03:19:38;100342.34;;;15.73;66.75
23281;BME280;11809;56.390;-3.266;2022-10-31T03:24:34;100340.56;;;15.73;66.78
23281;BME280;11809;56.390;-3.266;2022-10-31T03:27:03;100340.56;;;15.73;66.75
23281;BME280;11809;56.390;-3.266;2022-10-31T03:29:34;100338.88;;;15.72;66.84
23281;BME280;11809;56.390;-3.266;2022-10-31T03:32:07;100332.19;;;15.67;66.65
23281;BME280;11809;56.390;-3.266;2022-10-31T03:34:37;100333.66;;;15.71;66.76
23281;BME280;11809;56.390;-3.266;2022-10-31T03:37:09;100325.81;;;15.69;66.90
23281;BME280;11809;56.390;-3.266;2022-10-31T03:39:39;100324.03;;;15.70;66.76
23281;BME280;11809;56.390;-3.266;2022-10-31T03:42:25;100321.47;;;15.68;66.64
23281;BME280;11809;56.390;-3.266;2022-10-31T03:45:17;100325.06;;;15.67;66.85
23281;BME280;11809;56.390;-3.266;2022-10-31T03:47:45;100313.63;;;15.67;66.86
23281;BME280;11809;56.390;-3.266;2022-10-31T03:50:15;100319.88;;;15.66;67.05
23281;BME280;11809;56.390;-3.266;2022-10-31T03:55:50;100306.63;;;15.66;66.85
23281;BME280;11809;56.390;-3.266;2022-10-31T03:58:23;100308.41;;;15.65;66.86
23281;BME280;11809;56.390;-3.266;2022-10-31T04:00:54;100312.88;;;15.65;66.82
23281;BME280;11809;56.390;-3.266;2022-10-31T04:03:25;100301.84;;;15.58;66.89
23281;BME280;11809;56.390;-3.266;2022-10-31T04:05:55;100299.72;;;15.63;66.94
23281;BME280;11809;56.390;-3.266;2022-10-31T04:08:27;100300.59;;;15.64;66.94
23281;BME280;11809;56.390;-3.266;2022-10-31T04:10:56;100305.16;;;15.62;66.93
23281;BME280;11809;56.390;-3.266;2022-10-31T04:13:27;100299.72;;;15.63;66.96
23281;BME280;11809;56.390;-3.266;2022-10-31T04:15:55;100290.00;;;15.64;66.99
23281;BME280;11809;56.390;-3.266;2022-10-31T04:18:23;100288.28;;;15.63;66.85
23281;BME280;11809;56.390;-3.266;2022-10-31T04:21:03;100291.91;;;15.62;67.03
23281;BME280;11809;56.390;-3.266;2022-10-31T04:23:31;100298.13;;;15.61;66.63
23281;BME280;11809;56.390;-3.266;2022-10-31T04:25:58;100296.34;;;15.61;66.90
23281;BME280;11809;56.390;-3.266;2022-10-31T04:28:25;100302.59;;;15.60;67.06
23281;BME280;11809;56.390;-3.266;2022-10-31T04:30:52;100311.38;;;15.61;66.84
23281;BME280;11809;56.390;-3.266;2022-10-31T04:33:20;100304.56;;;15.57;67.00
23281;BME280;11809;56.390;-3.266;2022-10-31T04:35:47;100308.00;;;15.59;66.99
23281;BME280;11809;56.390;-3.266;2022-10-31T04:38:13;100301.00;;;15.58;66.93
23281;BME280;11809;56.390;-3.266;2022-10-31T04:40:40;100301.09;;;15.56;66.96
23281;BME280;11809;56.390;-3.266;2022-10-31T04:43:07;100302.78;;;15.57;66.89
23281;BME280;11809;56.390;-3.266;2022-10-31T04:45:34;100296.53;;;15.58;67.08
23281;BME280;11809;56.390;-3.266;2022-10-31T04:48:01;100301.00;;;15.58;67.11
23281;BME280;11809;56.390;-3.266;2022-10-31T04:50:29;100298.34;;;15.58;66.98
23281;BME280;11809;56.390;-3.266;2022-10-31T04:52:55;100297.59;;;15.56;67.16
23281;BME280;11809;56.390;-3.266;2022-10-31T04:55:22;100294.09;;;15.55;66.98
23281;BME280;11809;56.390;-3.266;2022-10-31T04:57:49;100288.91;;;15.54;67.16
23281;BME280;11809;56.390;-3.266;2022-10-31T05:00:19;100294.22;;;15.54;67.06
23281;BME280;11809;56.390;-3.266;2022-10-31T05:02:47;100293.34;;;15.53;67.02
23281;BME280;11809;56.390;-3.266;2022-10-31T05:05:15;100281.91;;;15.53;67.07
23281;BME280;11809;56.390;-3.266;2022-10-31T05:07:44;100283.69;;;15.52;66.96
23281;BME280;11809;56.390;-3.266;2022-10-31T05:10:13;100285.59;;;15.50;67.01
23281;BME280;11809;56.390;-3.266;2022-10-31T05:12:49;100290.78;;;15.52;67.05
23281;BME280;11809;56.390;-3.266;2022-10-31T05:15:17;100291.66;;;15.52;66.90
23281;BME280;11809;56.390;-3.266;2022-10-31T05:17:44;100292.50;;;15.53;66.92
23281;BME280;11809;56.390;-3.266;2022-10-31T05:20:13;100301.38;;;15.52;67.14
23281;BME280;11809;56.390;-3.266;2022-10-31T05:22:48;100298.00;;;15.50;67.08
23281;BME280;11809;56.390;-3.266;2022-10-31T05:25:17;100297.06;;;15.51;67.11
23281;BME280;11809;56.390;-3.266;2022-10-31T05:27:46;100290.78;;;15.52;67.04
23281;BME280;11809;56.390;-3.266;2022-10-31T05:30:16;100279.66;;;15.47;67.21
23281;BME280;11809;56.390;-3.266;2022-10-31T05:32:45;100276.81;;;15.50;67.04
23281;BME280;11809;56.390;-3.266;2022-10-31T05:35:14;100269.84;;;15.49;66.98
23281;BME280;11809;56.390;-3.266;2022-10-31T05:37:42;100275.22;;;15.47;66.99
23281;BME280;11809;56.390;-3.266;2022-10-31T05:40:11;100276.06;;;15.48;66.86
23281;BME280;11809;56.390;-3.266;2022-10-31T05:42:39;100277.00;;;15.47;67.02
23281;BME280;11809;56.390;-3.266;2022-10-31T05:45:11;100274.28;;;15.48;67.14
23281;BME280;11809;56.390;-3.266;2022-10-31T05:47:38;100274.28;;;15.48;66.98
23281;BME280;11809;56.390;-3.266;2022-10-31T05:50:06;100275.94;;;15.49;67.10
23281;BME280;11809;56.390;-3.266;2022-10-31T05:52:33;100267.06;;;15.50;67.19
23281;BME280;11809;56.390;-3.266;2022-10-31T05:55:00;100262.81;;;15.48;67.07
23281;BME280;11809;56.390;-3.266;2022-10-31T05:57:28;100264.63;;;15.47;67.07
23281;BME280;11809;56.390;-3.266;2022-10-31T05:59:55;100251.38;;;15.47;67.12
23281;BME280;11809;56.390;-3.266;2022-10-31T06:02:22;100252.22;;;15.48;67.30
23281;BME280;11809;56.390;-3.266;2022-10-31T06:04:49;100255.81;;;15.47;67.55
23281;BME280;11809;56.390;-3.266;2022-10-31T06:07:16;100254.88;;;15.48;67.71
23281;BME280;11809;56.390;-3.266;2022-10-31T06:09:43;100253.94;;;15.49;67.82
23281;BME280;11809;56.390;-3.266;2022-10-31T06:12:10;100246.00;;;15.49;67.97
23281;BME280;11809;56.390;-3.266;2022-10-31T06:14:37;100234.44;;;15.50;67.91
23281;BME280;11809;56.390;-3.266;2022-10-31T06:17:03;100242.28;;;15.51;68.02
23281;BME280;11809;56.390;-3.266;2022-10-31T06:19:30;100231.03;;;15.48;67.84
23281;BME280;11809;56.390;-3.266;2022-10-31T06:21:57;100244.72;;;15.54;67.85
23281;BME280;11809;56.390;-3.266;2022-10-31T06:24:24;100236.69;;;15.56;67.79
23281;BME280;11809;56.390;-3.266;2022-10-31T06:26:51;100241.00;;;15.57;67.79
23281;BME280;11809;56.390;-3.266;2022-10-31T06:29:18;100241.66;;;15.60;67.83
23281;BME280;11809;56.390;-3.266;2022-10-31T06:31:45;100238.16;;;15.60;67.79
23281;BME280;11809;56.390;-3.266;2022-10-31T06:34:12;100247.59;;;15.64;67.56
23281;BME280;11809;56.390;-3.266;2022-10-31T06:36:38;100254.50;;;15.66;67.57
23281;BME280;11809;56.390;-3.266;2022-10-31T06:39:05;100251.00;;;15.66;67.63
23281;BME280;11809;56.390;-3.266;2022-10-31T06:41:32;100250.13;;;15.65;67.69
23281;BME280;11809;56.390;-3.266;2022-10-31T06:43:59;100244.22;;;15.62;67.53
23281;BME280;11809;56.390;-3.266;2022-10-31T06:46:33;100246.63;;;15.65;67.44
23281;BME280;11809;56.390;-3.266;2022-10-31T06:49:00;100243.78;;;15.68;67.33
23281;BME280;11809;56.390;-3.266;2022-10-31T06:51:27;100242.09;;;15.67;67.26
23281;BME280;11809;56.390;-3.266;2022-10-31T06:53:54;100245.50;;;15.69;67.44
23281;BME280;11809;56.390;-3.266;2022-10-31T06:56:21;100240.94;;;15.71;67.46
23281;BME280;11809;56.390;-3.266;2022-10-31T06:58:48;100245.19;;;15.73;67.51
23281;BME280;11809;56.390;-3.266;2022-10-31T07:01:14;100246.44;;;15.68;67.33
23281;BME280;11809;56.390;-3.266;2022-10-31T07:03:42;100251.44;;;15.72;67.35
23281;BME280;11809;56.390;-3.266;2022-10-31T07:06:09;100247.94;;;15.72;67.38
23281;BME280;11809;56.390;-3.266;2022-10-31T07:08:35;100246.97;;;15.73;67.21
23281;BME280;11809;56.390;-3.266;2022-10-31T07:11:02;100251.44;;;15.72;67.25
23281;BME280;11809;56.390;-3.266;2022-10-31T07:13:29;100257.47;;;15.74;67.21
23281;BME280;11809;56.390;-3.266;2022-10-31T07:16:01;100250.59;;;15.72;67.27
23281;BME280;11809;56.390;-3.266;2022-10-31T07:18:29;100257.56;;;15.73;67.39
23281;BME280;11809;56.390;-3.266;2022-10-31T07:20:56;100253.88;;;15.75;67.17
23281;BME280;11809;56.390;-3.266;2022-10-31T07:23:23;100252.84;;;15.78;67.32
23281;BME280;11809;56.390;-3.266;2022-10-31T07:25:55;100255.69;;;15.75;67.30
23281;BME280;11809;56.390;-3.266;2022-10-31T07:28:22;100256.94;;;15.69;67.02
23281;BME280;11809;56.390;-3.266;2022-10-31T07:30:51;100247.59;;;15.64;67.10
23281;BME280;11809;56.390;-3.266;2022-10-31T07:33:18;100254.59;;;15.65;67.47
23281;BME280;11809;56.390;-3.266;2022-10-31T07:35:46;100249.09;;;15.68;67.46
23281;BME280;11809;56.390;-3.266;2022-10-31T07:38:14;100252.59;;;15.68;67.59
23281;BME280;11809;56.390;-3.266;2022-10-31T07:40:41;100254.28;;;15.69;67.77
23281;BME280;11809;56.390;-3.266;2022-10-31T07:43:11;100266.56;;;15.70;67.70
23281;BME280;11809;56.390;-3.266;2022-10-31T07:45:40;100259.41;;;15.72;67.70
23281;BME280;11809;56.390;-3.266;2022-10-31T07:48:07;100252.28;;;15.73;67.85
23281;BME280;11809;56.390;-3.266;2022-10-31T07:50:34;100251.34;;;15.74;68.16
23281;BME280;11809;56.390;-3.266;2022-10-31T07:53:04;100260.13;;;15.74;68.03
23281;BME280;11809;56.390;-3.266;2022-10-31T07:55:34;100261.81;;;15.75;68.09
23281;BME280;11809;56.390;-3.266;2022-10-31T07:58:04;100258.22;;;15.76;68.18
23281;BME280;11809;56.390;-3.266;2022-10-31T08:00:33;100268.81;;;15.76;68.18
23281;BME280;11809;56.390;-3.266;2022-10-31T08:03:06;100255.69;;;15.75;68.30
23281;BME280;11809;56.390;-3.266;2022-10-31T08:05:34;100253.78;;;15.77;68.37
23281;BME280;11809;56.390;-3.266;2022-10-31T08:08:03;100252.72;;;15.80;68.22
23281;BME280;11809;56.390;-3.266;2022-10-31T08:10:30;100259.06;;;15.77;68.05
23281;BME280;11809;56.390;-3.266;2022-10-31T08:13:07;100266.09;;;15.78;68.22
23281;BME280;11809;56.390;-3.266;2022-10-31T08:15:34;100264.38;;;15.77;68.08
23281;BME280;11809;56.390;-3.266;2022-10-31T08:18:05;100257.28;;;15.77;68.27
23281;BME280;11809;56.390;-3.266;2022-10-31T08:20:32;100263.44;;;15.78;68.34
23281;BME280;11809;56.390;-3.266;2022-10-31T08:23:02;100255.25;;;15.81;68.29
23281;BME280;11809;56.390;-3.266;2022-10-31T08:25:31;100249.94;;;15.81;68.33
23281;BME280;11809;56.390;-3.266;2022-10-31T08:28:05;100246.47;;;15.81;68.39
23281;BME280;11809;56.390;-3.266;2022-10-31T08:30:33;100260.56;;;15.81;68.42
23281;BME280;11809;56.390;-3.266;2022-10-31T08:33:13;100250.72;;;15.83;68.49
23281;BME280;11809;56.390;-3.266;2022-10-31T08:35:40;100247.22;;;15.83;68.47
23281;BME280;11809;56.390;-3.266;2022-10-31T08:38:10;100248.06;;;15.83;68.53
23281;BME280;11809;56.390;-3.266;2022-10-31T08:40:37;100245.31;;;15.85;68.71
23281;BME280;11809;56.390;-3.266;2022-10-31T08:43:08;100249.66;;;15.86;68.46
23281;BME280;11809;56.390;-3.266;2022-10-31T08:45:37;100253.38;;;15.83;68.68
23281;BME280;11809;56.390;-3.266;2022-10-31T08:48:08;100253.13;;;15.86;68.47
23281;BME280;11809;56.390;-3.266;2022-10-31T08:50:35;100241.06;;;15.82;68.56
23281;BME280;11809;56.390;-3.266;2022-10-31T08:53:17;100242.78;;;15.83;68.67
23281;BME280;11809;56.390;-3.266;2022-10-31T08:55:45;100257.28;;;15.90;68.28
23281;BME280;11809;56.390;-3.266;2022-10-31T08:58:18;100254.53;;;15.92;68.37
23281;BME280;11809;56.390;-3.266;2022-10-31T09:00:47;100259.72;;;15.93;68.33
23281;BME280;11809;56.390;-3.266;2022-10-31T09:03:18;100241.25;;;15.79;68.28
23281;BME280;11809;56.390;-3.266;2022-10-31T09:05:46;100261.41;;;15.94;68.13
23281;BME280;11809;56.390;-3.266;2022-10-31T09:08:13;100251.78;;;15.93;68.26
23281;BME280;11809;56.390;-3.266;2022-10-31T09:10:43;100246.38;;;15.95;67.99
23281;BME280;11809;56.390;-3.266;2022-10-31T09:13:19;100247.22;;;15.95;68.11
23281;BME280;11809;56.390;-3.266;2022-10-31T09:15:48;100247.22;;;15.95;68.09
23281;BME280;11809;56.390;-3.266;2022-10-31T09:18:17;100244.47;;;15.97;68.28
23281;BME280;11809;56.390;-3.266;2022-10-31T09:20:46;100231.31;;;15.95;68.00
23281;BME280;11809;56.390;-3.266;2022-10-31T09:23:19;100226.00;;;15.95;68.02
23281;BME280;11809;56.390;-3.266;2022-10-31T09:25:48;100230.47;;;15.95;67.78
23281;BME280;11809;56.390;-3.266;2022-10-31T09:28:19;100229.59;;;15.94;68.11
23281;BME280;11809;56.390;-3.266;2022-10-31T09:30:48;100230.38;;;15.96;67.72
23281;BME280;11809;56.390;-3.266;2022-10-31T09:33:16;100226.00;;;15.95;67.83
23281;BME280;11809;56.390;-3.266;2022-10-31T09:35:43;100227.81;;;15.95;68.00
23281;BME280;11809;56.390;-3.266;2022-10-31T09:38:12;100225.94;;;15.97;67.85
23281;BME280;11809;56.390;-3.266;2022-10-31T09:46:13;100221.44;;;15.97;67.64
23281;BME280;11809;56.390;-3.266;2022-10-31T09:51:47;100230.38;;;15.96;67.74
23281;BME280;11809;56.390;-3.266;2022-10-31T09:57:12;100227.81;;;15.95;67.65
23281;BME280;11809;56.390;-3.266;2022-10-31T09:59:40;100228.88;;;15.92;67.82
23281;BME280;11809;56.390;-3.266;2022-10-31T10:02:23;100230.59;;;15.93;67.68
23281;BME280;11809;56.390;-3.266;2022-10-31T10:05:01;100227.94;;;15.93;67.63
23281;BME280;11809;56.390;-3.266;2022-10-31T10:07:45;100217.53;;;15.90;67.67
23281;BME280;11809;56.390;-3.266;2022-10-31T10:10:55;100220.19;;;15.90;67.73
23281;BME280;11809;56.390;-3.266;2022-10-31T10:16:10;100210.31;;;15.92;67.87
23281;BME280;11809;56.390;-3.266;2022-10-31T10:29:38;100205.66;;;15.96;68.40
23281;BME280;11809;56.390;-3.266;2022-10-31T10:32:13;100210.13;;;15.95;68.58
23281;BME280;11809;56.390;-3.266;2022-10-31T10:34:52;100209.16;;;15.96;67.72
23281;BME280;11809;56.390;-3.266;2022-10-31T10:37:26;100209.38;;;15.93;68.49
23281;BME280;11809;56.390;-3.266;2022-10-31T10:40:05;100190.91;;;15.92;68.40
23281;BME280;11809;56.390;-3.266;2022-10-31T10:42:33;100206.41;;;15.98;68.41
23281;BME280;11809;56.390;-3.266;2022-10-31T10:45:20;100204.59;;;15.98;68.53
23281;BME280;11809;56.390;-3.266;2022-10-31T10:50:44;100212.44;;;16.00;68.57
23281;BME280;11809;56.390;-3.266;2022-10-31T10:56:04;100210.66;;;16.00;68.87
23281;BME280;11809;56.390;-3.266;2022-10-31T10:58:35;100209.78;;;16.00;68.87
23281;BME280;11809;56.390;-3.266;2022-10-31T11:01:12;100203.53;;;16.01;68.68
23281;BME280;11809;56.390;-3.266;2022-10-31T11:04:02;100208.84;;;16.01;68.67
23281;BME280;11809;56.390;-3.266;2022-10-31T11:06:29;100195.91;;;15.96;68.72
23281;BME280;11809;56.390;-3.266;2022-10-31T11:08:56;100207.78;;;16.03;68.57
23281;BME280;11809;56.390;-3.266;2022-10-31T11:11:26;100193.59;;;16.04;68.41
23281;BME280;11809;56.390;-3.266;2022-10-31T11:14:02;100186.56;;;16.03;68.47
23281;BME280;11809;56.390;-3.266;2022-10-31T11:16:36;100191.88;;;16.03;68.40
23281;BME280;11809;56.390;-3.266;2022-10-31T11:21:34;100191.47;;;15.97;68.88
23281;BME280;11809;56.390;-3.266;2022-10-31T11:26:39;100182.16;;;15.91;68.88
23281;BME280;11809;56.390;-3.266;2022-10-31T11:29:25;100179.50;;;15.91;68.84
23281;BME280;11809;56.390;-3.266;2022-10-31T11:31:54;100177.91;;;15.89;68.94
23281;BME280;11809;56.390;-3.266;2022-10-31T11:34:34;100171.97;;;15.85;69.09
23281;BME280;11809;56.390;-3.266;2022-10-31T11:37:16;100164.53;;;15.90;69.06
23281;BME280;11809;56.390;-3.266;2022-10-31T11:39:49;100164.31;;;15.93;68.93
23281;BME280;11809;56.390;-3.266;2022-10-31T11:42:26;100169.63;;;15.93;69.03
23281;BME280;11809;56.390;-3.266;2022-10-31T11:44:54;100152.03;;;15.92;68.85
23281;BME280;11809;56.390;-3.266;2022-10-31T11:47:27;100145.03;;;15.91;69.16
23281;BME280;11809;56.390;-3.266;2022-10-31T11:49:56;100133.59;;;15.91;68.83
23281;BME280;11809;56.390;-3.266;2022-10-31T11:52:26;100128.16;;;15.92;68.86
23281;BME280;11809;56.390;-3.266;2022-10-31T11:57:26;100133.69;;;15.89;68.86
23281;BME280;11809;56.390;-3.266;2022-10-31T11:59:54;100123.28;;;15.86;69.09
23281;BME280;11809;56.390;-3.266;2022-10-31T12:02:21;100118.97;;;15.85;68.97
23281;BME280;11809;56.390;-3.266;2022-10-31T12:07:39;100110.16;;;15.85;69.04
23281;BME280;11809;56.390;-3.266;2022-10-31T12:10:11;100118.25;;;15.83;68.81
23281;BME280;11809;56.390;-3.266;2022-10-31T12:15:38;100103.28;;;15.82;68.90
23281;BME280;11809;56.390;-3.266;2022-10-31T12:32:40;100128.06;;;15.81;68.80
23281;BME280;11809;56.390;-3.266;2022-10-31T12:49:53;100121.50;;;15.87;68.58
23281;BME280;11809;56.390;-3.266;2022-10-31T12:52:48;100124.91;;;15.89;68.64
23281;BME280;11809;56.390;-3.266;2022-10-31T12:58:19;100111.75;;;15.87;68.79
23281;BME280;11809;56.390;-3.266;2022-10-31T13:00:53;100103.06;;;15.85;68.80
23281;BME280;11809;56.390;-3.266;2022-10-31T13:03:30;100080.16;;;15.84;68.61
23281;BME280;11809;56.390;-3.266;2022-10-31T13:06:07;100097.34;;;15.91;68.58
23281;BME280;11809;56.390;-3.266;2022-10-31T13:08:40;100082.50;;;15.89;68.73
23281;BME280;11809;56.390;-3.266;2022-10-31T13:11:18;100086.75;;;15.91;68.66
23281;BME280;11809;56.390;-3.266;2022-10-31T13:16:29;100067.22;;;15.92;68.77
23281;BME280;11809;56.390;-3.266;2022-10-31T13:21:36;100066.16;;;15.95;68.70
23281;BME280;11809;56.390;-3.266;2022-10-31T13:24:12;100074.00;;;15.96;68.59
23281;BME280;11809;56.390;-3.266;2022-10-31T13:26:49;100076.16;;;15.91;68.56
23281;BME280;11809;56.390;-3.266;2022-10-31T13:30:00;100088.94;;;15.97;68.68
23281;BME280;11809;56.390;-3.266;2022-10-31T13:32:07;100079.09;;;15.99;68.78
23281;BME280;11809;56.390;-3.266;2022-10-31T13:34:46;100065.59;;;16.02;68.79
23281;BME280;11809;56.390;-3.266;2022-10-31T13:39:47;100046.44;;;15.99;68.47
23281;BME280;11809;56.390;-3.266;2022-10-31T13:42:50;100038.28;;;16.02;68.50
23281;BME280;11809;56.390;-3.266;2022-10-31T13:45:22;100036.44;;;16.02;68.32
23281;BME280;11809;56.390;-3.266;2022-10-31T13:50:57;100022.25;;;16.03;67.96
23281;BME280;11809;56.390;-3.266;2022-10-31T13:53:41;100022.38;;;16.02;67.84
23281;BME280;11809;56.390;-3.266;2022-10-31T13:58:52;100016.94;;;16.03;68.13
23281;BME280;11809;56.390;-3.266;2022-10-31T14:01:21;100008.06;;;16.04;68.02
23281;BME280;11809;56.390;-3.266;2022-10-31T14:04:06;100002.00;;;16.02;68.25
23281;BME280;11809;56.390;-3.266;2022-10-31T14:06:54;99998.53;;;16.02;68.40
23281;BME280;11809;56.390;-3.266;2022-10-31T14:12:31;99991.28;;;16.04;68.37
23281;BME280;11809;56.390;-3.266;2022-10-31T14:15:02;99969.97;;;16.05;68.23
23281;BME280;11809;56.390;-3.266;2022-10-31T14:17:38;99981.53;;;16.04;68.42
23281;BME280;11809;56.390;-3.266;2022-10-31T14:22:39;99968.06;;;16.07;68.14
23281;BME280;11809;56.390;-3.266;2022-10-31T14:25:33;99960.13;;;16.07;68.14
23281;BME280;11809;56.390;-3.266;2022-10-31T14:28:32;99953.84;;;16.08;68.14
23281;BME280;11809;56.390;-3.266;2022-10-31T14:31:00;99968.06;;;16.07;68.22
23281;BME280;11809;56.390;-3.266;2022-10-31T14:33:29;99971.22;;;16.12;68.26
23281;BME280;11809;56.390;-3.266;2022-10-31T14:36:08;99976.28;;;16.15;67.81
23281;BME280;11809;56.390;-3.266;2022-10-31T14:41:45;99981.69;;;16.14;67.66
23281;BME280;11809;56.390;-3.266;2022-10-31T14:44:38;99997.38;;;16.17;67.71
23281;BME280;11809;56.390;-3.266;2022-10-31T14:52:24;99994.38;;;16.21;67.79
23281;BME280;11809;56.390;-3.266;2022-10-31T14:54:53;99989.94;;;16.22;67.77
23281;BME280;11809;56.390;-3.266;2022-10-31T14:57:44;100001.63;;;16.19;67.77
23281;BME280;11809;56.390;-3.266;2022-10-31T15:00:19;100006.91;;;16.19;67.88
23281;BME280;11809;56.390;-3.266;2022-10-31T15:05:18;100010.94;;;16.25;68.04
23281;BME280;11809;56.390;-3.266;2022-10-31T15:07:57;100007.34;;;16.26;68.06
23281;BME280;11809;56.390;-3.266;2022-10-31T15:10:30;100008.16;;;16.26;67.92
23281;BME280;11809;56.390;-3.266;2022-10-31T15:13:19;100030.00;;;16.30;68.29
23281;BME280;11809;56.390;-3.266;2022-10-31T15:15:50;100020.97;;;16.32;68.21
23281;BME280;11809;56.390;-3.266;2022-10-31T15:18:25;100028.78;;;16.34;68.17
23281;BME280;11809;56.390;-3.266;2022-10-31T15:20:54;100022.16;;;16.28;68.18
23281;BME280;11809;56.390;-3.266;2022-10-31T15:23:27;100029.66;;;16.34;68.04
23281;BME280;11809;56.390;-3.266;2022-10-31T15:26:03;100032.06;;;16.37;68.33